createdAt,value
2023-05-03T00:00:58.100Z,4.88
2023-05-03T00:03:24.841Z,5.57
2023-05-03T00:05:52.951Z,5.47
2023-05-03T00:08:19.503Z,4.82
2023-05-03T00:10:46.058Z,5.05
2023-05-03T00:13:12.758Z,4.68
2023-05-03T00:15:39.450Z,4.90
2023-05-03T00:18:06.185Z,4.47
2023-05-03T00:20:33.006Z,4.55
2023-05-03T00:23:00.907Z,4.55
2023-05-03T00:25:27.461Z,5.20
2023-05-03T00:27:54.040Z,4.70
2023-05-03T00:30:20.665Z,4.90
2023-05-03T00:32:47.420Z,5.00
2023-05-03T00:35:14.018Z,4.63
2023-05-03T00:37:40.596Z,4.75
2023-05-03T00:40:09.967Z,4.90
2023-05-03T00:42:36.660Z,4.60
2023-05-03T00:45:03.562Z,4.88
2023-05-03T00:47:30.259Z,4.10
2023-05-03T00:49:56.896Z,5.05
2023-05-03T00:52:23.602Z,4.63
2023-05-03T00:54:50.399Z,4.60
2023-05-03T00:57:18.806Z,4.35
2023-05-03T00:59:46.058Z,5.10
2023-05-03T01:02:12.755Z,4.50
2023-05-03T01:04:42.361Z,4.43
2023-05-03T01:07:18.407Z,4.27
2023-05-03T01:09:53.454Z,4.82
2023-05-03T01:12:34.421Z,5.40
2023-05-03T01:15:08.418Z,4.70
2023-05-03T01:17:45.890Z,4.25
2023-05-03T01:20:13.868Z,4.97
2023-05-03T01:22:46.725Z,4.35
2023-05-03T01:25:15.435Z,5.40
2023-05-03T01:27:42.837Z,4.65
2023-05-03T01:30:10.947Z,4.85
2023-05-03T01:32:49.109Z,5.27
2023-05-03T01:35:20.629Z,4.80
2023-05-03T01:37:47.999Z,5.20
2023-05-03T01:40:17.612Z,4.35
2023-05-03T01:42:44.520Z,5.38
2023-05-03T01:45:12.139Z,4.97
2023-05-03T01:47:38.832Z,4.93
2023-05-03T01:50:06.053Z,4.78
2023-05-03T01:52:33.315Z,4.65
2023-05-03T01:55:00.030Z,4.78
2023-05-03T01:57:27.948Z,4.60
2023-05-03T01:59:54.688Z,5.20
2023-05-03T02:02:21.225Z,5.07
2023-05-03T02:04:47.984Z,4.53
2023-05-03T02:07:14.599Z,4.80
2023-05-03T02:09:41.338Z,5.17
2023-05-03T02:12:08.075Z,5.00
2023-05-03T02:14:36.000Z,4.35
2023-05-03T02:17:02.647Z,5.00
2023-05-03T02:19:29.188Z,4.68
2023-05-03T02:21:56.763Z,4.47
2023-05-03T02:24:23.355Z,4.60
2023-05-03T02:26:49.875Z,4.63
2023-05-03T02:29:16.369Z,4.32
2023-05-03T02:31:44.376Z,4.55
2023-05-03T02:34:11.009Z,4.30
2023-05-03T02:36:37.705Z,4.30
2023-05-03T02:39:04.182Z,5.18
2023-05-03T02:41:30.703Z,4.95
2023-05-03T02:43:57.240Z,4.90
2023-05-03T02:46:23.856Z,5.00
2023-05-03T02:48:51.972Z,4.78
2023-05-03T02:51:18.494Z,4.80
2023-05-03T02:53:45.194Z,4.80
2023-05-03T02:56:11.742Z,5.10
2023-05-03T02:58:38.476Z,4.50
2023-05-03T03:01:05.160Z,4.63
2023-05-03T03:03:31.959Z,5.20
2023-05-03T03:05:59.950Z,4.63
2023-05-03T03:08:26.717Z,4.53
2023-05-03T03:10:53.361Z,4.57
2023-05-03T03:13:20.004Z,4.95
2023-05-03T03:15:46.684Z,4.65
2023-05-03T03:18:13.179Z,4.22
2023-05-03T03:20:39.685Z,5.03
2023-05-03T03:23:07.692Z,4.40
2023-05-03T03:25:34.200Z,4.63
2023-05-03T03:28:00.762Z,4.65
2023-05-03T03:30:27.298Z,4.80
2023-05-03T03:32:54.061Z,4.78
2023-05-03T03:35:21.317Z,4.63
2023-05-03T03:37:47.876Z,4.80
2023-05-03T03:40:15.968Z,4.70
2023-05-03T03:42:42.575Z,4.90
2023-05-03T03:45:10.270Z,4.78
2023-05-03T03:47:36.978Z,4.30
2023-05-03T03:50:04.392Z,4.45
2023-05-03T03:52:31.659Z,4.55
2023-05-03T03:54:58.365Z,4.82
2023-05-03T03:57:26.304Z,4.82
2023-05-03T03:59:52.879Z,4.17
2023-05-03T04:02:19.469Z,4.57
2023-05-03T04:04:46.060Z,4.05
2023-05-03T04:07:12.642Z,4.57
2023-05-03T04:09:39.318Z,4.65
2023-05-03T04:12:06.266Z,4.63
2023-05-03T04:14:34.142Z,5.00
2023-05-03T04:17:00.953Z,5.10
2023-05-03T04:19:27.579Z,4.95
2023-05-03T04:21:54.360Z,4.70
2023-05-03T04:24:20.912Z,5.20
2023-05-03T04:26:47.466Z,5.15
2023-05-03T04:29:14.237Z,5.07
2023-05-03T04:31:42.174Z,5.05
2023-05-03T04:34:08.702Z,5.47
2023-05-03T04:36:35.193Z,4.77
2023-05-03T04:39:01.906Z,5.53
2023-05-03T04:41:28.470Z,6.25
2023-05-03T04:43:55.265Z,6.38
2023-05-03T04:46:21.981Z,6.05
2023-05-03T04:48:50.176Z,5.77
2023-05-03T04:51:16.819Z,5.53
2023-05-03T04:53:43.407Z,6.28
2023-05-03T04:56:10.028Z,5.45
2023-05-03T04:58:36.608Z,5.25
2023-05-03T05:01:03.394Z,5.40
2023-05-03T05:03:30.101Z,4.78
2023-05-03T05:05:58.310Z,5.55
2023-05-03T05:08:24.844Z,5.65
2023-05-03T05:10:51.562Z,5.80
2023-05-03T05:13:18.138Z,5.80
2023-05-03T05:15:44.803Z,5.95
2023-05-03T05:18:11.422Z,5.45
2023-05-03T05:20:38.055Z,6.05
2023-05-03T05:23:05.985Z,5.82
2023-05-03T05:25:32.554Z,5.20
2023-05-03T05:27:59.268Z,5.18
2023-05-03T05:30:26.073Z,5.63
2023-05-03T05:32:52.836Z,5.30
2023-05-03T05:35:19.467Z,5.20
2023-05-03T05:37:46.062Z,5.33
2023-05-03T05:40:14.605Z,5.18
2023-05-03T05:42:41.121Z,5.78
2023-05-03T05:45:08.625Z,5.55
2023-05-03T05:47:35.270Z,5.70
2023-05-03T05:50:02.039Z,6.13
2023-05-03T05:52:28.876Z,6.15
2023-05-03T05:54:55.419Z,5.38
2023-05-03T05:57:23.342Z,5.65
2023-05-03T05:59:50.086Z,5.07
2023-05-03T06:02:16.969Z,4.93
2023-05-03T06:04:43.781Z,4.95
2023-05-03T06:07:10.350Z,5.60
2023-05-03T06:09:37.082Z,5.80
2023-05-03T06:12:04.188Z,5.97
2023-05-03T06:14:32.058Z,5.30
2023-05-03T06:16:58.654Z,5.55
2023-05-03T06:19:25.419Z,5.55
2023-05-03T06:21:52.008Z,5.68
2023-05-03T06:24:18.619Z,5.28
2023-05-03T06:26:45.339Z,5.60
2023-05-03T06:29:11.906Z,5.60
2023-05-03T06:31:39.851Z,5.70
2023-05-03T06:34:08.548Z,4.88
2023-05-03T06:36:36.419Z,5.03
2023-05-03T06:39:03.095Z,5.13
2023-05-03T06:41:30.673Z,4.82
2023-05-03T06:43:57.241Z,4.35
2023-05-03T06:46:23.973Z,4.40
2023-05-03T06:48:51.997Z,4.40
2023-05-03T06:51:18.549Z,3.63
2023-05-03T06:53:45.064Z,3.33
2023-05-03T06:56:11.601Z,2.97
2023-05-03T06:58:38.182Z,2.70
2023-05-03T07:01:04.815Z,2.97
2023-05-03T07:03:32.743Z,2.90
2023-05-03T07:06:00.892Z,2.80
2023-05-03T07:08:27.476Z,3.00
2023-05-03T07:10:54.009Z,2.90
2023-05-03T07:13:20.568Z,2.70
2023-05-03T07:15:47.218Z,2.80
2023-05-03T07:18:14.026Z,2.50
2023-05-03T07:20:40.654Z,3.08
2023-05-03T07:23:09.259Z,2.63
2023-05-03T07:25:35.842Z,2.70
2023-05-03T07:28:02.445Z,2.37
2023-05-03T07:30:29.188Z,3.27
2023-05-03T07:32:55.890Z,2.50
2023-05-03T07:35:22.556Z,2.63
2023-05-03T07:37:49.352Z,2.10
2023-05-03T07:40:17.346Z,2.30
2023-05-03T07:42:43.901Z,2.20
2023-05-03T07:45:10.884Z,1.92
2023-05-03T07:47:37.545Z,2.47
2023-05-03T07:50:05.208Z,2.55
2023-05-03T07:52:35.749Z,2.20
2023-05-03T07:55:02.381Z,2.20
2023-05-03T07:57:30.739Z,2.40
2023-05-03T07:59:57.248Z,2.03
2023-05-03T08:02:24.034Z,2.30
2023-05-03T08:04:50.976Z,2.38
2023-05-03T08:07:17.673Z,1.83
2023-05-03T08:09:44.260Z,2.25
2023-05-03T08:12:10.815Z,2.17
2023-05-03T08:14:38.744Z,2.30
2023-05-03T08:17:05.288Z,2.58
2023-05-03T08:19:31.966Z,2.17
2023-05-03T08:21:58.550Z,2.22
2023-05-03T08:24:25.146Z,2.78
2023-05-03T08:26:51.812Z,2.33
2023-05-03T08:29:18.332Z,2.20
2023-05-03T08:31:46.322Z,1.90
2023-05-03T08:34:12.916Z,2.10
2023-05-03T08:36:39.465Z,2.45
2023-05-03T08:39:06.097Z,1.90
2023-05-03T08:41:33.545Z,2.20
2023-05-03T08:44:35.295Z,1.90
2023-05-03T08:47:03.724Z,2.20
2023-05-03T08:49:31.213Z,2.17
2023-05-03T08:51:58.658Z,1.92
2023-05-03T08:54:25.523Z,2.10
2023-05-03T08:56:52.330Z,2.20
2023-05-03T08:59:19.059Z,2.42
2023-05-03T09:01:45.704Z,2.50
2023-05-03T09:04:13.813Z,2.22
2023-05-03T09:06:40.583Z,2.20
2023-05-03T09:09:07.745Z,2.40
2023-05-03T09:11:35.268Z,2.35
2023-05-03T09:14:09.775Z,2.25
2023-05-03T09:16:36.531Z,1.85
2023-05-03T09:19:05.093Z,1.85
2023-05-03T09:21:32.959Z,2.13
2023-05-03T09:23:59.708Z,2.00
2023-05-03T09:26:30.430Z,2.47
2023-05-03T09:28:58.426Z,2.40
2023-05-03T09:31:26.609Z,2.33
2023-05-03T09:33:53.245Z,2.43
2023-05-03T09:36:19.888Z,1.77
2023-05-03T09:38:48.453Z,2.13
2023-05-03T09:41:15.250Z,1.98
2023-05-03T09:43:49.363Z,1.80
2023-05-03T09:46:16.012Z,2.27
2023-05-03T09:48:42.777Z,1.98
2023-05-03T09:51:10.233Z,2.15
2023-05-03T09:53:38.386Z,2.10
2023-05-03T09:56:08.496Z,2.25
2023-05-03T09:58:36.232Z,2.20
2023-05-03T10:01:03.033Z,2.13
2023-05-03T10:03:34.796Z,1.90
2023-05-03T10:06:05.206Z,2.20
2023-05-03T10:08:34.331Z,2.20
2023-05-03T10:11:03.647Z,2.33
2023-05-03T10:13:31.898Z,1.85
2023-05-03T10:16:05.531Z,1.80
2023-05-03T10:18:34.354Z,2.25
2023-05-03T10:21:06.832Z,2.30
2023-05-03T10:23:33.907Z,2.10
2023-05-03T10:26:16.002Z,1.95
2023-05-03T10:28:44.610Z,2.22
2023-05-03T10:31:52.706Z,1.90
2023-05-03T10:34:23.893Z,1.90
2023-05-03T10:36:52.140Z,1.90
2023-05-03T10:39:19.043Z,1.95
2023-05-03T10:41:56.532Z,1.70
2023-05-03T10:44:27.667Z,2.05
2023-05-03T10:46:54.777Z,1.85
2023-05-03T10:49:23.247Z,1.70
2023-05-03T10:51:50.292Z,2.03
2023-05-03T10:54:16.965Z,2.10
2023-05-03T10:56:56.338Z,2.05
2023-05-03T10:59:23.827Z,1.80
2023-05-03T11:01:53.261Z,1.90
2023-05-03T11:04:33.942Z,1.90
2023-05-03T11:07:01.404Z,1.77
2023-05-03T11:09:32.288Z,2.05
2023-05-03T11:12:04.253Z,1.80
2023-05-03T11:14:33.387Z,2.10
2023-05-03T11:17:04.257Z,1.90
2023-05-03T11:19:32.644Z,2.10
2023-05-03T11:22:03.002Z,1.70
2023-05-03T11:24:31.995Z,2.03
2023-05-03T11:26:58.630Z,2.20
2023-05-03T11:29:25.411Z,1.92
2023-05-03T11:31:52.277Z,2.33
2023-05-03T11:34:20.135Z,2.10
2023-05-03T11:36:46.706Z,2.03
2023-05-03T11:39:14.162Z,2.43
2023-05-03T11:41:40.689Z,2.10
2023-05-03T11:44:15.916Z,2.20
2023-05-03T11:46:45.499Z,1.92
2023-05-03T11:49:17.543Z,2.10
2023-05-03T11:51:48.411Z,2.10
2023-05-03T11:54:24.856Z,2.08
2023-05-03T11:56:55.858Z,2.05
2023-05-03T11:59:33.973Z,2.00
2023-05-03T12:02:03.662Z,2.15
2023-05-03T12:04:45.277Z,1.83
2023-05-03T12:07:42.255Z,1.95
2023-05-03T12:10:19.604Z,2.50
2023-05-03T12:12:56.991Z,2.00
2023-05-03T12:15:30.020Z,1.88
2023-05-03T12:18:00.177Z,2.37
2023-05-03T12:21:27.543Z,2.33
2023-05-03T12:23:17.756Z,1.83
2023-05-03T12:25:45.182Z,2.20
2023-05-03T12:28:20.395Z,2.20
2023-05-03T12:30:48.047Z,2.30
2023-05-03T12:33:15.811Z,2.45
2023-05-03T12:35:53.449Z,2.38
2023-05-03T12:38:23.948Z,2.28
2023-05-03T12:40:51.687Z,2.55
2023-05-03T12:43:18.358Z,2.00
2023-05-03T12:45:52.353Z,2.30
2023-05-03T12:48:25.581Z,2.10
2023-05-03T12:50:52.385Z,1.95
2023-05-03T12:53:19.336Z,2.10
2023-05-03T12:55:51.447Z,1.90
2023-05-03T13:01:22.579Z,2.03
2023-05-03T13:03:43.003Z,1.73
2023-05-03T13:06:14.054Z,2.25
2023-05-03T13:08:49.416Z,2.37
2023-05-03T13:11:17.762Z,2.20
2023-05-03T13:13:44.548Z,2.22
2023-05-03T13:16:11.146Z,2.65
2023-05-03T13:18:37.692Z,2.28
2023-05-03T13:21:04.502Z,2.00
2023-05-03T13:23:31.081Z,2.33
2023-05-03T13:26:05.996Z,2.20
2023-05-03T13:28:36.672Z,2.05
2023-05-03T13:31:13.328Z,2.08
2023-05-03T13:33:58.187Z,2.03
2023-05-03T13:36:39.683Z,2.65
2023-05-03T13:39:07.388Z,2.47
2023-05-03T13:41:33.929Z,2.17
2023-05-03T13:44:01.938Z,1.98
2023-05-03T13:46:28.534Z,2.20
2023-05-03T13:48:55.570Z,1.95
2023-05-03T13:51:22.253Z,2.25
2023-05-03T13:53:48.799Z,2.10
2023-05-03T13:56:15.369Z,2.00
2023-05-03T13:58:41.901Z,2.37
2023-05-03T14:01:09.962Z,2.30
2023-05-03T14:03:36.565Z,2.10
2023-05-03T14:06:03.267Z,2.25
2023-05-03T14:08:30.029Z,1.83
2023-05-03T14:10:56.586Z,2.00
2023-05-03T14:13:23.180Z,1.48
2023-05-03T14:15:49.781Z,2.25
2023-05-03T14:18:17.912Z,1.80
2023-05-03T14:20:44.482Z,2.03
2023-05-03T14:23:11.088Z,1.50
2023-05-03T14:25:37.653Z,1.90
2023-05-03T14:28:04.429Z,1.60
2023-05-03T14:30:31.109Z,1.50
2023-05-03T14:32:57.683Z,2.17
2023-05-03T14:35:26.055Z,1.80
2023-05-03T14:37:52.627Z,1.80
2023-05-03T14:40:20.360Z,1.73
2023-05-03T14:42:47.199Z,1.73
2023-05-03T14:45:13.737Z,2.00
2023-05-03T14:47:40.812Z,2.00
2023-05-03T14:50:08.243Z,1.50
2023-05-03T14:52:36.347Z,1.52
2023-05-03T14:55:03.232Z,1.70
2023-05-03T14:57:30.064Z,1.70
2023-05-03T14:59:56.889Z,1.60
2023-05-03T15:02:23.485Z,1.52
2023-05-03T15:04:50.062Z,1.88
2023-05-03T15:07:16.658Z,2.00
2023-05-03T15:09:44.568Z,2.35
2023-05-03T15:12:11.276Z,2.10
2023-05-03T15:14:37.771Z,2.10
2023-05-03T15:17:04.432Z,2.25
2023-05-03T15:19:31.021Z,2.03
2023-05-03T15:21:58.438Z,2.20
2023-05-03T15:24:27.196Z,2.13
2023-05-03T15:26:55.069Z,2.10
2023-05-03T15:29:21.657Z,2.10
2023-05-03T15:31:48.340Z,2.20
2023-05-03T15:34:14.840Z,1.83
2023-05-03T15:36:41.419Z,1.90
2023-05-03T15:39:08.177Z,2.17
2023-05-03T15:41:34.693Z,1.83
2023-05-03T15:44:02.722Z,2.10
2023-05-03T15:46:29.292Z,1.80
2023-05-03T15:48:55.912Z,1.73
2023-05-03T15:51:22.569Z,1.85
2023-05-03T15:53:49.449Z,1.77
2023-05-03T15:56:16.084Z,1.83
2023-05-03T15:58:42.756Z,1.63
2023-05-03T16:01:10.897Z,1.57
2023-05-03T16:03:37.528Z,1.70
2023-05-03T16:06:05.107Z,1.63
2023-05-03T16:08:31.922Z,1.60
2023-05-03T16:10:58.519Z,1.88
2023-05-03T16:13:25.195Z,1.97
2023-05-03T16:15:51.770Z,1.60
2023-05-03T16:18:19.706Z,1.60
2023-05-03T16:20:46.419Z,1.55
2023-05-03T16:23:12.961Z,1.92
2023-05-03T16:25:39.583Z,1.57
2023-05-03T16:28:06.199Z,1.70
2023-05-03T16:30:33.030Z,1.90
2023-05-03T16:32:59.624Z,1.58
2023-05-03T16:35:27.616Z,1.73
2023-05-03T16:37:54.295Z,1.50
2023-05-03T16:40:20.842Z,1.83
2023-05-03T16:42:49.054Z,1.80
2023-05-03T16:45:15.668Z,1.83
2023-05-03T16:47:42.826Z,1.80
2023-05-03T16:50:10.010Z,1.80
2023-05-03T16:52:40.282Z,2.00
2023-05-03T16:55:07.593Z,1.90
2023-05-03T16:57:34.291Z,1.90
2023-05-03T17:00:03.336Z,2.10
2023-05-03T17:02:31.414Z,1.80
2023-05-03T17:04:58.015Z,1.80
2023-05-03T17:07:24.575Z,1.90
2023-05-03T17:09:52.610Z,2.03
2023-05-03T17:12:19.391Z,2.00
2023-05-03T17:14:46.116Z,2.00
2023-05-03T17:17:12.674Z,1.73
2023-05-03T17:19:39.260Z,1.92
2023-05-03T17:22:06.057Z,1.80
2023-05-03T17:24:32.806Z,1.73
2023-05-03T17:27:00.824Z,2.10
2023-05-03T17:29:27.419Z,1.92
2023-05-03T17:31:54.170Z,1.80
2023-05-03T17:34:20.813Z,1.65
2023-05-03T17:36:47.392Z,1.90
2023-05-03T17:39:14.121Z,1.90
2023-05-03T17:41:40.672Z,2.97
2023-05-03T17:44:08.753Z,2.40
2023-05-03T17:46:35.727Z,2.17
2023-05-03T17:49:02.387Z,2.22
2023-05-03T17:51:31.034Z,2.50
2023-05-03T17:53:57.625Z,3.38
2023-05-03T17:56:24.134Z,2.33
2023-05-03T17:58:50.986Z,2.92
2023-05-03T18:01:18.944Z,2.65
2023-05-03T18:03:45.802Z,4.47
2023-05-03T18:06:13.330Z,3.60
2023-05-03T18:08:40.330Z,2.15
2023-05-03T18:11:07.035Z,2.78
2023-05-03T18:13:33.771Z,2.63
2023-05-03T18:16:00.722Z,2.40
2023-05-03T18:18:28.683Z,2.88
2023-05-03T18:20:58.550Z,2.47
2023-05-03T18:23:25.134Z,2.50
2023-05-03T18:25:52.014Z,3.28
2023-05-03T18:28:18.533Z,2.80
2023-05-03T18:30:45.240Z,2.45
2023-05-03T18:33:11.815Z,2.00
2023-05-03T18:35:39.935Z,2.03
2023-05-03T18:38:06.661Z,1.50
2023-05-03T18:40:33.376Z,1.90
2023-05-03T18:42:59.881Z,1.75
2023-05-03T18:45:26.597Z,1.88
2023-05-03T18:47:53.144Z,1.80
2023-05-03T18:50:19.880Z,1.45
2023-05-03T18:52:47.779Z,1.60
2023-05-03T18:55:14.371Z,2.05
2023-05-03T18:57:40.951Z,1.92
2023-05-03T19:00:08.797Z,1.95
2023-05-03T19:02:35.564Z,2.22
2023-05-03T19:05:02.202Z,1.80
2023-05-03T19:07:28.814Z,1.70
2023-05-03T19:09:57.567Z,1.90
2023-05-03T19:12:24.244Z,2.00
2023-05-03T19:14:50.951Z,2.50
2023-05-03T19:17:17.538Z,1.97
2023-05-03T19:19:44.104Z,1.98
2023-05-03T19:22:10.660Z,2.10
2023-05-03T19:24:53.728Z,2.33
2023-05-03T19:27:21.642Z,2.42
2023-05-03T19:29:48.173Z,1.90
2023-05-03T19:32:14.718Z,2.20
2023-05-03T19:34:41.443Z,1.80
2023-05-03T19:37:08.018Z,1.90
2023-05-03T19:39:34.556Z,2.30
2023-05-03T19:42:01.547Z,2.00
2023-05-03T19:44:29.704Z,1.90
2023-05-03T19:46:56.298Z,2.20
2023-05-03T19:49:22.884Z,1.80
2023-05-03T19:51:49.537Z,2.00
2023-05-03T19:54:16.060Z,1.73
2023-05-03T19:57:07.988Z,2.20
2023-05-03T19:59:35.903Z,1.70
2023-05-03T20:02:02.679Z,2.00
2023-05-03T20:04:29.307Z,1.70
2023-05-03T20:06:55.881Z,2.05
2023-05-03T20:09:22.440Z,1.85
2023-05-03T20:11:49.414Z,1.90
2023-05-03T20:14:16.027Z,1.80
2023-05-03T20:16:44.112Z,2.23
2023-05-03T20:19:10.917Z,2.33
2023-05-03T20:21:37.443Z,2.67
2023-05-03T20:24:04.366Z,2.40
2023-05-03T20:26:30.918Z,2.10
2023-05-03T20:28:57.441Z,2.10
2023-05-03T20:31:24.126Z,2.07
2023-05-03T20:33:52.086Z,1.98
2023-05-03T20:36:18.663Z,2.05
2023-05-03T20:38:45.224Z,2.08
2023-05-03T20:41:11.786Z,2.08
2023-05-03T20:43:38.301Z,2.07
2023-05-03T20:46:04.981Z,2.30
2023-05-03T20:48:31.599Z,2.30
2023-05-03T20:50:59.696Z,2.40
2023-05-03T20:53:26.415Z,2.10
2023-05-03T20:55:55.100Z,2.27
2023-05-03T20:58:21.676Z,2.37
2023-05-03T21:00:48.421Z,2.10
2023-05-03T21:03:15.104Z,2.30
2023-05-03T21:05:41.741Z,2.15
2023-05-03T21:08:09.766Z,2.30
2023-05-03T21:10:36.315Z,2.37
2023-05-03T21:13:03.009Z,2.43
2023-05-03T21:15:29.557Z,2.15
2023-05-03T21:17:56.109Z,2.50
2023-05-03T21:20:22.684Z,2.40
2023-05-03T21:22:49.256Z,2.58
2023-05-03T21:25:17.222Z,2.10
2023-05-03T21:27:43.774Z,2.20
2023-05-03T21:30:11.051Z,2.50
2023-05-03T21:32:37.758Z,2.63
2023-05-03T21:35:05.057Z,2.25
2023-05-03T21:37:31.604Z,2.42
2023-05-03T21:40:02.542Z,2.50
2023-05-03T21:42:30.965Z,2.83
2023-05-03T21:44:57.468Z,2.63
2023-05-03T21:47:24.091Z,2.55
2023-05-03T21:49:50.668Z,2.58
2023-05-03T21:52:17.376Z,2.40
2023-05-03T21:54:43.919Z,2.50
2023-05-03T21:57:10.432Z,2.72
2023-05-03T21:59:38.374Z,2.47
2023-05-03T22:02:04.981Z,2.67
2023-05-03T22:04:31.759Z,2.70
2023-05-03T22:06:58.263Z,2.33
2023-05-03T22:09:24.917Z,2.40
2023-05-03T22:11:51.591Z,2.80
2023-05-03T22:14:18.110Z,2.80
2023-05-03T22:16:45.975Z,2.77
2023-05-03T22:19:12.698Z,2.67
2023-05-03T22:21:39.306Z,2.35
2023-05-03T22:24:06.990Z,2.83
2023-05-03T22:26:33.588Z,2.70
2023-05-03T22:29:00.182Z,3.27
2023-05-03T22:31:26.862Z,3.37
2023-05-03T22:33:54.813Z,3.33
2023-05-03T22:36:21.401Z,2.70
2023-05-03T22:38:47.899Z,3.10
2023-05-03T22:41:14.469Z,3.08
2023-05-03T22:43:41.082Z,2.83
2023-05-03T22:46:07.745Z,3.37
2023-05-03T22:48:34.645Z,3.20
2023-05-03T22:51:02.528Z,3.33
2023-05-03T22:53:29.271Z,2.80
2023-05-03T22:55:56.927Z,3.17
2023-05-03T22:58:23.750Z,3.57
2023-05-03T23:00:50.276Z,3.83
2023-05-03T23:03:16.931Z,3.30
2023-05-03T23:05:43.564Z,3.40
2023-05-03T23:08:13.174Z,3.75
2023-05-03T23:10:39.813Z,3.27
2023-05-03T23:13:06.370Z,3.50
2023-05-03T23:15:33.107Z,3.45
2023-05-03T23:17:59.893Z,3.30
2023-05-03T23:20:26.631Z,3.38
2023-05-03T23:22:53.296Z,3.40
2023-05-03T23:25:21.862Z,3.73
2023-05-03T23:27:48.502Z,3.40
2023-05-03T23:30:15.482Z,4.00
2023-05-03T23:32:42.503Z,3.92
2023-05-03T23:35:09.541Z,3.92
2023-05-03T23:37:36.254Z,3.80
2023-05-03T23:40:03.397Z,3.63
2023-05-03T23:42:31.756Z,3.55
2023-05-03T23:44:58.347Z,3.80
2023-05-03T23:47:24.924Z,3.47
2023-05-03T23:49:51.744Z,3.65
2023-05-03T23:52:18.293Z,4.50
2023-05-03T23:54:44.833Z,4.27
2023-05-03T23:57:11.407Z,4.20
2023-05-03T23:59:39.418Z,3.83
